ΕΜΥ, Εθνική Μετεωρολογική Υπηρεσία - Δελτία Καιρού, Προγνώσεις

ΑΕΡΟΝΑΥΤΙΛΙΑ

GREEK AIRPORTS CODES

TAF LGEL 261100Z 2612/2712 35018KT 9999 FEW025 TEMPO 2612/2618 35018G28KT=

EUROPEAN AIRPORTS CODES

LOWW 261550Z 13009KT 100V160 CAVOK 34/16 Q1021 NOSIG=